Flight Track Log - Related Links

Times and Time Zones

All times are in EDT time to prevent confusion due to time zone crossing. See the QXE2340 flight status page for this flight to view local times or setup timezone preferences in your user account.

Time Position Orientation Groundspeed Altitude Reporting Facility
EDT Latitude Longitude Course Direction KTS MPH feet Rate Location/Type
Wed 12:52:00 AM 47.4264 -121.5754 95° East  Level Estimated
Wed 12:53:00 AM 47.4232 -121.4526 92° East  Level FlightAware Approximate
Wed 12:54:00 AM 47.4187 -121.3300 90° East  Level Estimated
Wed 12:55:00 AM 47.4166 -121.2072 91° East  Level FlightAware Approximate
Wed 12:56:00 AM 47.4118 -121.0846 90° East  Level Estimated
Wed 12:57:00 AM 47.4068 -120.9620 98° East  Level Estimated
Wed 12:58:00 AM 47.4017 -120.8395 92° East  Level Estimated
Wed 12:59:00 AM 47.3994 -120.7167 92° East  Level FlightAware Approximate
Wed 01:00:00 AM 47.3870 -120.5963 99° East  Level FlightAware Approximate
Wed 01:01:00 AM 47.3746 -120.4759 99° East  Level FlightAware Approximate
Wed 01:02:00 AM 47.3692 -120.3544 90° East  Level Estimated
Wed 01:03:00 AM 47.3638 -120.2330 98° East  Level Estimated
Wed 01:04:00 AM 47.3582 -120.1115 92° East  Level Estimated
Wed 01:05:00 AM 47.3532 -119.9901 93° East  Level FlightAware Approximate
Wed 01:06:00 AM 47.3481 -119.8686 94° East  Level FlightAware Approximate
Wed 01:07:00 AM 47.3428 -119.7471 94° East  Level FlightAware Approximate
Wed 01:08:00 AM 47.3375 -119.6257 94° East  Level FlightAware Approximate
Wed 01:09:00 AM 47.3312 -119.5044 94° East  Level Estimated
Wed 01:10:00 AM 47.3249 -119.3831 94° East  Level FlightAware Approximate
Wed 01:11:00 AM 47.3184 -119.2619 94° East  Level FlightAware Approximate
Wed 01:12:00 AM 47.3118 -119.1406 95° East  Level FlightAware Approximate
Wed 01:13:00 AM 47.3051 -119.0194 95° East  Level FlightAware Approximate
Wed 01:14:00 AM 47.2983 -118.8983 95° East  Level FlightAware Approximate
Wed 01:15:00 AM 47.2916 -118.7822 95° East  Level FlightAware Approximate
Wed 01:16:00 AM 47.2848 -118.6661 95° East  Level FlightAware Approximate
Wed 01:17:00 AM 47.2774 -118.5419 95° East  Level FlightAware Approximate
Wed 01:18:00 AM 47.2699 -118.4178 95° East  Level FlightAware Approximate
Wed 01:19:00 AM 47.2622 -118.2937 95° East  Level FlightAware Approximate
Wed 01:20:00 AM 47.2544 -118.1696 95° East  Level FlightAware Approximate
Wed 01:21:00 AM 47.2461 -118.0457 96° East  Level FlightAware Approximate
Wed 01:22:00 AM 47.2370 -117.9218 96° East  Level FlightAware Approximate
Wed 01:23:00 AM 47.2277 -117.7965 96° East  Level FlightAware Approximate
Wed 01:24:00 AM 47.2183 -117.6712 96° East  Level FlightAware Approximate
Wed 01:25:00 AM 47.2087 -117.5460 96° East  Level FlightAware Approximate
Wed 01:26:00 AM 47.1990 -117.4208 96° East  Level FlightAware Approximate
Wed 01:27:00 AM 47.1892 -117.2957 97° East  Level FlightAware Approximate
Wed 01:28:00 AM 47.1792 -117.1706 97° East  Level FlightAware Approximate
Wed 01:29:00 AM 47.1691 -117.0455 97° East  Level FlightAware Approximate
Wed 01:30:00 AM 47.1589 -116.9205 97° East  Level FlightAware Approximate
Wed 01:31:00 AM 47.1485 -116.7956 97° East  Level FlightAware Approximate
Wed 01:32:00 AM 47.1380 -116.6707 97° East  Level FlightAware Approximate
Wed 01:33:00 AM 47.1273 -116.5459 97° East  Level FlightAware Approximate
Wed 01:34:00 AM 47.1176 -116.4232 97° East  Level FlightAware Approximate
Wed 01:35:00 AM 47.1076 -116.2978 97° East  Level FlightAware Approximate
Wed 01:36:00 AM 47.0975 -116.1725 97° East  Level FlightAware Approximate
Wed 01:37:00 AM 47.0872 -116.0471 97° East  Level FlightAware Approximate
Wed 01:38:00 AM 47.0768 -115.9219 97° East  Level FlightAware Approximate
Wed 01:39:00 AM 47.0662 -115.7967 97° East  Level FlightAware Approximate
Wed 01:40:00 AM 47.0556 -115.6722 97° East  Level FlightAware Approximate
Wed 01:41:00 AM 47.0448 -115.5478 97° East  Level FlightAware Approximate
Wed 01:42:00 AM 47.0339 -115.4234 97° East  Level FlightAware Approximate
Wed 01:43:00 AM 47.0236 -115.2990 97° East  Level FlightAware Approximate
Wed 01:44:00 AM 47.0120 -115.1748 99° East  Level FlightAware Approximate
Wed 01:45:00 AM 47.0000 -115.0509 90° East  Level FlightAware Approximate
Wed 01:46:00 AM 46.9908 -114.9264 100° East  Level FlightAware Approximate
Wed 01:47:00 AM 46.9818 -114.8019 99° East  Level FlightAware Approximate
Wed 01:48:00 AM 46.9688 -114.6777 99° East  Level FlightAware Approximate
Wed 01:49:00 AM 46.9557 -114.5536 99° East  Level FlightAware Approximate
Wed 01:50:00 AM 46.9436 -114.4293 98° East  Level FlightAware Approximate
Wed 01:51:00 AM 46.9333 -114.3047 90° East  Level FlightAware Approximate
Wed 01:52:00 AM 46.9234 -114.1806 102° East  Level FlightAware Approximate
Wed 01:53:00 AM 46.9163 -114.0906 116° Southeast  Level Estimated
Wed 01:54:00 AM 46.9163 -114.0906 116° Southeast  Level Estimated
Wed 01:55:00 AM 46.9163 -114.0906 116° Southeast  Level Estimated
Wed 01:56:00 AM 46.9163 -114.0906 116° Southeast  Level Estimated
Wed 01:57:00 AM 46.9163 -114.0906 116° Southeast  Level Estimated
Wed 01:58:00 AM 46.9163 -114.0906 116° Southeast  Level Estimated

Login

Don't have an account? Register now (free) for customized features, flight alerts, and more!